Time;durP1;ratioP1;P1;durP2;ratioP2;P2;SDS_P1;SDS_P2;PMS_P1;PMS_P2;Temp;Humidity;BMP_temperature;BMP_pressure;BME280_temperature;BME280_humidity;BME280_pressure;Samples;Min_cycle;Max_cycle;Signal;HPM_P1;HPM_P2
2022/03/13 00:00:52;;;;;;;;;;;0.80;94.60;;;;;;5103920;28;19928;-71
2022/03/13 00:03:19;;;;;;;;;;;0.70;94.40;;;;;;5098222;28;19991;-71
2022/03/13 00:05:48;;;;;;;;;;;0.60;94.50;;;;;;5103411;28;20171;-71
2022/03/13 00:08:21;;;;;;;;;;;0.50;94.70;;;;;;5103634;28;19990;-71
2022/03/13 00:10:53;;;;;;;;;;;0.50;94.70;;;;;;5103433;28;19928;-71
2022/03/13 00:13:20;;;;;;;;;;;0.50;94.80;;;;;;5103712;28;20096;-71
2022/03/13 00:15:51;;;;;;;;;;;0.50;95.10;;;;;;5103243;28;19920;-71
2022/03/13 00:18:18;;;;;;;;;;;0.50;95.20;;;;;;5103200;28;19920;-71
2022/03/13 00:20:44;;;;;;;;;;;0.40;95.20;;;;;;5103739;28;19920;-71
2022/03/13 00:23:12;;;;;;;;;;;0.40;95.40;;;;;;5103635;28;19920;-71
2022/03/13 00:25:39;;;;;;;;;;;0.40;95.50;;;;;;5102896;28;20206;-71
2022/03/13 00:28:07;;;;;;;;;;;0.40;95.60;;;;;;5103525;28;20164;-71
2022/03/13 00:30:35;;;;;;;;;;;0.40;95.90;;;;;;5103561;28;19962;-71
2022/03/13 00:33:01;;;;;;;;;;;0.30;95.90;;;;;;5103383;28;20215;-70
2022/03/13 00:35:28;;;;;;;;;;;0.30;95.80;;;;;;5103041;28;19926;-71
2022/03/13 00:37:55;;;;;;;;;;;0.30;95.80;;;;;;5103286;28;20010;-71
2022/03/13 00:40:22;;;;;;;;;;;0.20;95.80;;;;;;5103521;28;19920;-71
2022/03/13 00:42:49;;;;;;;;;;;0.20;96.00;;;;;;5103238;28;19932;-71
2022/03/13 00:45:17;;;;;;;;;;;0.10;95.90;;;;;;5103022;28;19927;-71
2022/03/13 00:47:44;;;;;;;;;;;0.20;95.90;;;;;;5103454;28;20210;-71
2022/03/13 00:50:11;;;;;;;;;;;0.10;96.00;;;;;;5103537;28;19927;-71
2022/03/13 00:52:37;;;;;;;;;;;0.10;96.10;;;;;;5103754;28;19923;-71
2022/03/13 00:55:04;;;;;;;;;;;0.10;96.20;;;;;;5103269;28;19920;-71
2022/03/13 00:57:32;;;;;;;;;;;0.10;96.20;;;;;;5102573;28;19920;-71
2022/03/13 00:59:59;;;;;;;;;;;0.00;96.20;;;;;;5103353;28;20175;-71
2022/03/13 01:02:27;;;;;;;;;;;0.00;96.30;;;;;;5103018;28;19930;-71
2022/03/13 01:04:54;;;;;;;;;;;0.00;96.20;;;;;;5098344;28;19927;-71
2022/03/13 01:07:20;;;;;;;;;;;0.00;96.10;;;;;;5087016;28;19992;-71
2022/03/13 01:09:47;;;;;;;;;;;0.00;96.00;;;;;;5103131;28;19920;-71
2022/03/13 01:12:14;;;;;;;;;;;-0.10;96.00;;;;;;5131646;22;19977;-71
2022/03/13 01:14:40;;;;;;;;;;;-0.10;96.20;;;;;;5137803;27;19968;-71
2022/03/13 01:17:08;;;;;;;;;;;-0.10;96.00;;;;;;5138721;27;19923;-71
2022/03/13 01:19:37;;;;;;;;;;;-0.10;96.00;;;;;;5147799;27;19919;-71
2022/03/13 01:22:04;;;;;;;;;;;-0.10;96.00;;;;;;5139608;27;19923;-71
2022/03/13 01:24:31;;;;;;;;;;;-0.10;96.10;;;;;;5148011;27;20099;-71
2022/03/13 01:27:02;;;;;;;;;;;-0.20;96.30;;;;;;5148964;27;19919;-71
2022/03/13 01:29:29;;;;;;;;;;;-0.20;96.30;;;;;;5168335;27;19925;-71
2022/03/13 01:31:55;;;;;;;;;;;-0.20;96.00;;;;;;5168315;27;19938;-71
2022/03/13 01:34:27;;;;;;;;;;;-0.20;95.80;;;;;;5168262;27;20206;-71
2022/03/13 01:36:55;;;;;;;;;;;-0.20;95.80;;;;;;5167754;27;19919;-71
2022/03/13 01:39:21;;;;;;;;;;;-0.30;95.80;;;;;;5167787;27;19919;-71
2022/03/13 01:41:48;;;;;;;;;;;-0.30;95.80;;;;;;5168315;27;19926;-71
2022/03/13 01:44:15;;;;;;;;;;;-0.30;95.80;;;;;;5167592;27;19933;-70
2022/03/13 01:46:41;;;;;;;;;;;-0.20;95.90;;;;;;5167365;27;19919;-71
2022/03/13 01:49:09;;;;;;;;;;;-0.30;95.90;;;;;;5168005;27;19925;-71
2022/03/13 01:51:35;;;;;;;;;;;-0.30;95.90;;;;;;5168199;27;19923;-71
2022/03/13 01:54:05;;;;;;;;;;;-0.30;95.70;;;;;;5168128;27;20115;-71
2022/03/13 01:56:32;;;;;;;;;;;-0.30;95.60;;;;;;5167380;27;19925;-71
2022/03/13 01:58:59;;;;;;;;;;;-0.30;95.50;;;;;;5167794;27;19925;-71
2022/03/13 02:01:26;;;;;;;;;;;-0.30;95.40;;;;;;5166897;27;19919;-71
2022/03/13 02:03:54;;;;;;;;;;;-0.30;95.40;;;;;;5168245;27;19925;-71
2022/03/13 02:06:21;;;;;;;;;;;-0.30;95.20;;;;;;5167827;27;19926;-71
2022/03/13 02:08:50;;;;;;;;;;;-0.30;95.10;;;;;;5167618;27;19920;-71
2022/03/13 02:11:19;;;;;;;;;;;-0.30;94.90;;;;;;5167785;27;20230;-71
2022/03/13 02:13:47;;;;;;;;;;;-0.30;95.00;;;;;;5167722;27;19926;-71
2022/03/13 02:16:14;;;;;;;;;;;-0.30;94.70;;;;;;5167072;27;19919;-71
2022/03/13 02:18:41;;;;;;;;;;;-0.30;94.40;;;;;;5167732;27;19919;-71
2022/03/13 02:21:08;;;;;;;;;;;-0.30;94.50;;;;;;5167714;27;20115;-71
2022/03/13 02:23:37;;;;;;;;;;;-0.30;94.30;;;;;;5167589;27;20109;-71
2022/03/13 02:26:04;;;;;;;;;;;-0.30;94.30;;;;;;5165899;27;19964;-71
2022/03/13 02:28:32;;;;;;;;;;;-0.30;94.40;;;;;;5167532;27;19925;-71
2022/03/13 02:30:59;;;;;;;;;;;-0.30;94.40;;;;;;5167245;27;21384;-71
2022/03/13 02:33:26;;;;;;;;;;;-0.30;94.30;;;;;;5167650;27;20087;-71
2022/03/13 02:35:54;;;;;;;;;;;-0.30;94.20;;;;;;5166738;27;19919;-72
2022/03/13 02:38:20;;;;;;;;;;;-0.30;94.10;;;;;;5167460;27;20152;-71
2022/03/13 02:40:48;;;;;;;;;;;-0.30;93.90;;;;;;5167535;27;19919;-71
2022/03/13 02:43:15;;;;;;;;;;;-0.30;93.50;;;;;;5167134;27;19954;-71
2022/03/13 02:45:41;;;;;;;;;;;-0.20;92.40;;;;;;5162938;27;19982;-71
2022/03/13 02:48:09;;;;;;;;;;;-0.20;92.30;;;;;;5167160;27;19926;-71
2022/03/13 02:50:36;;;;;;;;;;;-0.10;92.20;;;;;;5167057;27;19919;-71
2022/03/13 02:53:03;;;;;;;;;;;-0.10;92.30;;;;;;5167207;27;19919;-71
2022/03/13 02:55:31;;;;;;;;;;;-0.10;92.50;;;;;;5166433;27;19925;-71
2022/03/13 02:57:59;;;;;;;;;;;-0.20;92.40;;;;;;5166689;27;19919;-71
2022/03/13 03:00:40;;;;;;;;;;;-0.20;92.40;;;;;;5166761;27;20229;-71
2022/03/13 03:03:07;;;;;;;;;;;-0.20;92.40;;;;;;5146047;27;19923;-72
2022/03/13 03:05:34;;;;;;;;;;;-0.20;92.30;;;;;;5154938;27;19927;-71
2022/03/13 03:08:00;;;;;;;;;;;-0.20;92.20;;;;;;5166281;27;19919;-71
2022/03/13 03:10:27;;;;;;;;;;;-0.20;92.10;;;;;;5166719;27;20214;-71
2022/03/13 03:12:54;;;;;;;;;;;-0.20;92.30;;;;;;5166184;27;19925;-71
2022/03/13 03:15:23;;;;;;;;;;;-0.20;92.50;;;;;;5165974;27;20228;-71
2022/03/13 03:17:49;;;;;;;;;;;-0.20;92.50;;;;;;5166172;27;19964;-71
2022/03/13 03:20:16;;;;;;;;;;;-0.20;92.60;;;;;;5166230;27;20248;-71
2022/03/13 03:22:42;;;;;;;;;;;-0.20;92.50;;;;;;5166265;27;19919;-71
2022/03/13 03:25:09;;;;;;;;;;;-0.20;92.40;;;;;;5165795;27;19919;-71
2022/03/13 03:27:36;;;;;;;;;;;-0.30;92.30;;;;;;5165202;27;20226;-71
2022/03/13 03:30:03;;;;;;;;;;;-0.30;92.60;;;;;;5158331;27;20202;-71
2022/03/13 03:32:31;;;;;;;;;;;-0.30;92.80;;;;;;5145704;27;19919;-71
2022/03/13 03:34:58;;;;;;;;;;;-0.30;92.90;;;;;;5145232;27;19919;-71
2022/03/13 03:37:25;;;;;;;;;;;-0.30;92.60;;;;;;5145979;27;19919;-71
2022/03/13 03:39:51;;;;;;;;;;;-0.30;92.40;;;;;;5166350;27;19941;-71
2022/03/13 03:42:18;;;;;;;;;;;-0.30;92.50;;;;;;5165394;27;20270;-71
2022/03/13 03:44:45;;;;;;;;;;;-0.40;92.60;;;;;;5164054;27;19931;-71
2022/03/13 03:47:11;;;;;;;;;;;-0.40;92.90;;;;;;5145800;27;19919;-71
2022/03/13 03:49:39;;;;;;;;;;;-0.40;93.20;;;;;;5165602;27;19919;-71
2022/03/13 03:52:06;;;;;;;;;;;-0.40;93.40;;;;;;5166243;27;19927;-71
2022/03/13 03:54:33;;;;;;;;;;;-0.50;93.50;;;;;;5165810;27;19925;-71
2022/03/13 03:56:59;;;;;;;;;;;-0.50;93.60;;;;;;5165068;27;19926;-71
2022/03/13 03:59:26;;;;;;;;;;;-0.50;93.80;;;;;;5164249;27;19919;-71
2022/03/13 04:01:53;;;;;;;;;;;-0.50;94.00;;;;;;5161629;27;19926;-71
2022/03/13 04:04:20;;;;;;;;;;;-0.60;94.20;;;;;;5165564;27;19978;-71
2022/03/13 04:06:47;;;;;;;;;;;-0.60;94.40;;;;;;5161631;27;19923;-71
2022/03/13 04:09:14;;;;;;;;;;;-0.60;94.60;;;;;;5168970;27;20198;-71
2022/03/13 04:11:41;;;;;;;;;;;-0.60;94.70;;;;;;5165186;27;19920;-71
2022/03/13 04:14:09;;;;;;;;;;;-0.60;94.70;;;;;;5165408;27;19926;-71
2022/03/13 04:16:35;;;;;;;;;;;-0.60;94.80;;;;;;5164536;27;19942;-71
2022/03/13 04:19:02;;;;;;;;;;;-0.70;94.80;;;;;;5158952;27;19919;-71
2022/03/13 04:21:28;;;;;;;;;;;-0.60;95.00;;;;;;5165535;27;19919;-71
2022/03/13 04:23:56;;;;;;;;;;;-0.70;94.90;;;;;;5165233;27;19919;-71
2022/03/13 04:26:23;;;;;;;;;;;-0.70;95.00;;;;;;5164555;27;20272;-71
2022/03/13 04:28:50;;;;;;;;;;;-0.70;95.10;;;;;;5165099;27;19923;-71
2022/03/13 04:31:17;;;;;;;;;;;-0.70;95.00;;;;;;5162490;27;19919;-71
2022/03/13 04:33:43;;;;;;;;;;;-0.80;95.00;;;;;;5165306;27;20006;-71
2022/03/13 04:36:12;;;;;;;;;;;-0.80;95.20;;;;;;5154315;27;19919;-71
2022/03/13 04:38:39;;;;;;;;;;;-0.80;95.20;;;;;;5152062;27;19952;-71
2022/03/13 04:41:07;;;;;;;;;;;-0.80;95.50;;;;;;5161806;27;19919;-71
2022/03/13 04:43:33;;;;;;;;;;;-0.80;95.60;;;;;;5165510;27;19926;-71
2022/03/13 04:46:00;;;;;;;;;;;-0.90;95.70;;;;;;5164390;27;19961;-71
2022/03/13 04:48:27;;;;;;;;;;;-0.90;95.80;;;;;;5166844;27;19919;-71
2022/03/13 04:50:54;;;;;;;;;;;-0.90;96.00;;;;;;5155516;27;19927;-71
2022/03/13 04:53:20;;;;;;;;;;;-0.90;96.20;;;;;;5156195;27;19919;-71
2022/03/13 04:55:47;;;;;;;;;;;-0.90;96.10;;;;;;5158659;27;20114;-71
2022/03/13 04:58:15;;;;;;;;;;;-1.00;96.00;;;;;;5148513;27;20210;-71
2022/03/13 05:00:41;;;;;;;;;;;-1.00;96.00;;;;;;5148670;27;19933;-71
2022/03/13 05:03:10;;;;;;;;;;;-1.00;96.00;;;;;;5148589;27;19987;-71
2022/03/13 05:05:36;;;;;;;;;;;-1.00;96.10;;;;;;5156995;27;20600;-71
2022/03/13 05:08:04;;;;;;;;;;;-1.00;95.80;;;;;;5165982;27;19926;-71
2022/03/13 05:10:35;;;;;;;;;;;-1.00;96.00;;;;;;5168629;27;19919;-71
2022/03/13 05:13:02;;;;;;;;;;;-1.10;95.60;;;;;;5168632;27;19919;-71
2022/03/13 05:15:30;;;;;;;;;;;-1.10;95.70;;;;;;5168364;27;20127;-71
2022/03/13 05:17:56;;;;;;;;;;;-1.10;95.60;;;;;;5162251;27;19919;-71
2022/03/13 05:20:23;;;;;;;;;;;-1.10;95.60;;;;;;5168872;27;19927;-72
2022/03/13 05:22:49;;;;;;;;;;;-1.20;95.60;;;;;;5168850;27;19926;-71
2022/03/13 05:25:16;;;;;;;;;;;-1.20;95.70;;;;;;5168020;27;19919;-71
2022/03/13 05:27:43;;;;;;;;;;;-1.20;95.90;;;;;;5168688;27;19919;-71
2022/03/13 05:30:11;;;;;;;;;;;-1.20;96.10;;;;;;5166383;27;20106;-71
2022/03/13 05:32:39;;;;;;;;;;;-1.20;96.10;;;;;;5154647;27;20207;-71
2022/03/13 05:35:05;;;;;;;;;;;-1.20;96.20;;;;;;5168084;27;19957;-71
2022/03/13 05:37:32;;;;;;;;;;;-1.20;95.90;;;;;;5171363;27;19919;-71
2022/03/13 05:39:59;;;;;;;;;;;-1.20;95.80;;;;;;5181258;27;19925;-71
2022/03/13 05:42:25;;;;;;;;;;;-1.20;95.80;;;;;;5163888;27;19919;-71
2022/03/13 05:44:52;;;;;;;;;;;-1.20;95.80;;;;;;5167761;27;19919;-71
2022/03/13 05:47:18;;;;;;;;;;;-1.20;95.80;;;;;;5161626;27;19920;-71
2022/03/13 05:49:47;;;;;;;;;;;-1.20;96.00;;;;;;5147460;27;19919;-71
2022/03/13 05:52:15;;;;;;;;;;;-1.20;96.20;;;;;;5147310;27;19927;-71
2022/03/13 05:54:42;;;;;;;;;;;-1.20;96.30;;;;;;5163993;27;20206;-71
2022/03/13 05:57:09;;;;;;;;;;;-1.20;96.40;;;;;;5167429;27;19919;-71
2022/03/13 05:59:35;;;;;;;;;;;-1.20;96.40;;;;;;5167759;27;19986;-71
2022/03/13 06:02:02;;;;;;;;;;;-1.20;96.60;;;;;;5168210;27;19923;-71
2022/03/13 06:04:29;;;;;;;;;;;-1.20;96.70;;;;;;5167758;27;19919;-71
2022/03/13 06:06:57;;;;;;;;;;;-1.20;96.60;;;;;;5167178;27;20229;-71
2022/03/13 06:09:23;;;;;;;;;;;-1.20;96.40;;;;;;5167645;27;20153;-71
2022/03/13 06:11:50;;;;;;;;;;;-1.20;96.10;;;;;;5167269;27;19919;-71
2022/03/13 06:14:18;;;;;;;;;;;-1.20;96.10;;;;;;5166733;27;19919;-71
2022/03/13 06:16:44;;;;;;;;;;;-1.20;95.80;;;;;;5166210;27;19964;-71
2022/03/13 06:19:11;;;;;;;;;;;-1.10;95.10;;;;;;5166711;27;19925;-71
2022/03/13 06:21:42;;;;;;;;;;;-1.20;95.10;;;;;;5166346;27;19923;-71
2022/03/13 06:24:10;;;;;;;;;;;-1.10;95.20;;;;;;5166352;27;20222;-71
2022/03/13 06:26:37;;;;;;;;;;;-1.10;95.40;;;;;;5166149;27;20118;-71
2022/03/13 06:29:03;;;;;;;;;;;-1.10;95.60;;;;;;5166231;27;19919;-71
2022/03/13 06:31:31;;;;;;;;;;;-1.10;95.60;;;;;;5164265;27;19951;-71
2022/03/13 06:33:58;;;;;;;;;;;-1.00;95.80;;;;;;5165758;27;20237;-71
2022/03/13 06:36:24;;;;;;;;;;;-1.00;95.80;;;;;;5165396;27;19950;-71
2022/03/13 06:38:51;;;;;;;;;;;-0.90;95.60;;;;;;5166339;27;19919;-71
2022/03/13 06:41:20;;;;;;;;;;;-0.90;95.60;;;;;;5166156;27;19919;-71
2022/03/13 06:43:46;;;;;;;;;;;-0.90;95.40;;;;;;5165866;27;19932;-71
2022/03/13 06:46:13;;;;;;;;;;;-0.80;94.20;;;;;;5165348;27;20211;-71
2022/03/13 06:48:40;;;;;;;;;;;-0.80;93.40;;;;;;5166036;27;19919;-71
2022/03/13 06:51:06;;;;;;;;;;;-0.80;93.50;;;;;;5165800;27;20002;-71
2022/03/13 06:53:35;;;;;;;;;;;-0.70;93.40;;;;;;5165931;27;19965;-71
2022/03/13 06:56:01;;;;;;;;;;;-0.70;93.30;;;;;;5158485;27;20246;-71
2022/03/13 06:58:29;;;;;;;;;;;-0.60;92.90;;;;;;5158404;27;19919;-71
2022/03/13 07:00:56;;;;;;;;;;;-0.50;92.80;;;;;;5150044;27;19943;-71
2022/03/13 07:03:22;;;;;;;;;;;-0.50;92.10;;;;;;5160354;27;19919;-71
2022/03/13 07:05:49;;;;;;;;;;;-0.30;91.80;;;;;;5165015;27;19923;-71
2022/03/13 07:08:16;;;;;;;;;;;-0.20;91.30;;;;;;5152942;27;19926;-71
2022/03/13 07:10:43;;;;;;;;;;;-0.10;91.10;;;;;;5144080;27;19920;-71
2022/03/13 07:13:10;;;;;;;;;;;0.00;90.60;;;;;;5094170;27;1936257;-70
2022/03/13 07:15:39;;;;;;;;;;;0.10;90.30;;;;;;5165635;27;20463;-70
2022/03/13 07:18:05;;;;;;;;;;;0.20;90.10;;;;;;5164008;27;19919;-70
2022/03/13 07:20:32;;;;;;;;;;;0.30;90.00;;;;;;5165181;27;19927;-70
2022/03/13 07:23:08;;;;;;;;;;;0.30;89.80;;;;;;5164315;27;19923;-70
2022/03/13 07:25:34;;;;;;;;;;;0.40;89.30;;;;;;5145387;27;19920;-70
2022/03/13 07:28:01;;;;;;;;;;;0.50;89.40;;;;;;5146337;27;19926;-70
2022/03/13 07:30:28;;;;;;;;;;;0.60;88.10;;;;;;5145768;27;20146;-71
2022/03/13 07:32:56;;;;;;;;;;;0.70;88.60;;;;;;5146152;27;19920;-71
2022/03/13 07:35:23;;;;;;;;;;;0.70;88.20;;;;;;5145548;27;19935;-70
2022/03/13 07:37:49;;;;;;;;;;;0.80;87.70;;;;;;5151073;27;20260;-70
2022/03/13 07:40:16;;;;;;;;;;;0.90;87.50;;;;;;5165394;27;20233;-70
2022/03/13 07:42:43;;;;;;;;;;;1.00;87.40;;;;;;5166355;27;19919;-70
2022/03/13 07:45:10;;;;;;;;;;;1.10;87.10;;;;;;5145316;27;19949;-70
2022/03/13 07:47:37;;;;;;;;;;;1.20;87.60;;;;;;5145257;27;19927;-70
2022/03/13 07:50:05;;;;;;;;;;;1.30;87.40;;;;;;5145848;27;19986;-70
2022/03/13 07:52:32;;;;;;;;;;;1.40;86.60;;;;;;5145533;27;20225;-69
2022/03/13 07:54:58;;;;;;;;;;;1.50;87.30;;;;;;5161611;27;19919;-70
2022/03/13 07:57:25;;;;;;;;;;;1.60;86.60;;;;;;5165909;27;20203;-72
2022/03/13 07:59:52;;;;;;;;;;;1.70;86.50;;;;;;5166451;27;19960;-70
2022/03/13 08:02:19;;;;;;;;;;;1.80;85.70;;;;;;5166422;27;19919;-71
2022/03/13 08:04:45;;;;;;;;;;;1.90;86.40;;;;;;5166146;27;19965;-71
2022/03/13 08:07:13;;;;;;;;;;;2.00;85.90;;;;;;5165415;27;19919;-70
2022/03/13 08:09:40;;;;;;;;;;;2.10;85.10;;;;;;5165873;27;19919;-71
2022/03/13 08:12:07;;;;;;;;;;;2.20;85.50;;;;;;5165754;27;20226;-70
2022/03/13 08:14:33;;;;;;;;;;;2.30;83.70;;;;;;5166164;27;19919;-71
2022/03/13 08:17:00;;;;;;;;;;;2.40;81.20;;;;;;5165325;27;19919;-71
2022/03/13 08:19:27;;;;;;;;;;;2.50;81.90;;;;;;5166098;27;19985;-70
2022/03/13 08:21:53;;;;;;;;;;;2.60;80.90;;;;;;5166052;27;20106;-70
2022/03/13 08:24:21;;;;;;;;;;;2.70;81.70;;;;;;5165913;27;19919;-71
2022/03/13 08:26:48;;;;;;;;;;;2.80;82.00;;;;;;5165505;27;19920;-71
2022/03/13 08:29:15;;;;;;;;;;;2.90;81.40;;;;;;5166186;27;19919;-71
2022/03/13 08:31:41;;;;;;;;;;;2.90;81.10;;;;;;5165687;27;20232;-71
2022/03/13 08:34:08;;;;;;;;;;;3.10;81.00;;;;;;5165510;27;19946;-72
2022/03/13 08:36:36;;;;;;;;;;;3.20;80.50;;;;;;5165299;27;19958;-71
2022/03/13 08:39:03;;;;;;;;;;;3.30;80.20;;;;;;5165749;27;19919;-71
2022/03/13 08:41:31;;;;;;;;;;;3.30;79.50;;;;;;5165917;27;19957;-72
2022/03/13 08:43:57;;;;;;;;;;;3.40;80.30;;;;;;5165927;27;20224;-72
2022/03/13 08:46:24;;;;;;;;;;;3.40;80.30;;;;;;5164916;27;20224;-71
2022/03/13 08:48:51;;;;;;;;;;;3.50;80.80;;;;;;5165725;27;19919;-71
2022/03/13 08:51:19;;;;;;;;;;;3.60;80.40;;;;;;5165686;27;19923;-72
2022/03/13 08:53:46;;;;;;;;;;;3.60;80.50;;;;;;5162385;27;19919;-71
2022/03/13 08:56:14;;;;;;;;;;;3.70;79.70;;;;;;5164933;27;19925;-72
2022/03/13 08:58:42;;;;;;;;;;;3.80;80.00;;;;;;5146784;27;19920;-73
2022/03/13 09:01:09;;;;;;;;;;;3.90;80.10;;;;;;5158795;27;19927;-71
2022/03/13 09:03:36;;;;;;;;;;;4.00;80.30;;;;;;5152778;27;19923;-71
2022/03/13 09:06:02;;;;;;;;;;;4.00;80.80;;;;;;5162484;27;19919;-71
2022/03/13 09:08:29;;;;;;;;;;;4.10;79.70;;;;;;5156112;27;20207;-72
2022/03/13 09:10:56;;;;;;;;;;;4.20;79.80;;;;;;5163149;27;20220;-72
2022/03/13 09:13:22;;;;;;;;;;;4.30;80.50;;;;;;5167086;27;19919;-71
2022/03/13 09:15:51;;;;;;;;;;;4.40;80.40;;;;;;5185166;27;19919;-73
2022/03/13 09:18:17;;;;;;;;;;;4.40;80.10;;;;;;5185472;27;19919;-73
2022/03/13 09:20:44;;;;;;;;;;;4.60;79.00;;;;;;5170096;27;19919;-70
2022/03/13 09:23:11;;;;;;;;;;;4.60;79.30;;;;;;5160787;27;19919;-69
2022/03/13 09:25:37;;;;;;;;;;;4.80;79.60;;;;;;5164511;27;19927;-71
2022/03/13 09:28:04;;;;;;;;;;;4.90;79.60;;;;;;5156093;27;19926;-71
2022/03/13 09:30:31;;;;;;;;;;;5.00;79.50;;;;;;5149742;27;20141;-73
2022/03/13 09:33:00;;;;;;;;;;;5.30;78.90;;;;;;5164837;27;20149;-72
2022/03/13 09:35:27;;;;;;;;;;;5.40;79.40;;;;;;5167839;27;19960;-73
2022/03/13 09:37:53;;;;;;;;;;;5.50;78.70;;;;;;5168766;27;20415;-72
2022/03/13 09:40:20;;;;;;;;;;;5.70;78.90;;;;;;5168927;27;19919;-72
2022/03/13 09:42:47;;;;;;;;;;;5.80;78.90;;;;;;5169113;27;19919;-73
2022/03/13 09:45:14;;;;;;;;;;;5.80;79.40;;;;;;5168381;27;19919;-70
2022/03/13 09:47:44;;;;;;;;;;;6.00;79.10;;;;;;5165982;27;19927;-72
2022/03/13 09:50:13;;;;;;;;;;;6.10;76.90;;;;;;5168125;27;19930;-71
2022/03/13 09:52:40;;;;;;;;;;;6.20;78.00;;;;;;5168309;27;19919;-71
2022/03/13 09:55:07;;;;;;;;;;;6.40;78.30;;;;;;5168483;27;20118;-69
2022/03/13 09:57:36;;;;;;;;;;;6.50;77.90;;;;;;5168046;27;20202;-72
2022/03/13 10:00:05;;;;;;;;;;;6.60;78.00;;;;;;5168398;27;20161;-71
2022/03/13 10:02:35;;;;;;;;;;;6.70;76.50;;;;;;5162675;27;19919;-71
2022/03/13 10:05:05;;;;;;;;;;;6.80;78.60;;;;;;5168779;27;20195;-71
2022/03/13 10:07:50;;;;;;;;;;;7.00;78.10;;;;;;5175922;27;19956;-68
2022/03/13 10:10:17;;;;;;;;;;;7.10;78.00;;;;;;5162853;27;20223;-69
2022/03/13 10:12:44;;;;;;;;;;;7.20;79.50;;;;;;5163094;27;19947;-69
2022/03/13 10:15:12;;;;;;;;;;;7.40;79.40;;;;;;5167902;27;19919;-69
2022/03/13 10:17:39;;;;;;;;;;;7.50;75.70;;;;;;5167103;27;20174;-68
2022/03/13 10:20:14;;;;;;;;;;;7.60;75.20;;;;;;5168210;27;19919;-68
2022/03/13 10:22:42;;;;;;;;;;;7.80;75.90;;;;;;5172796;27;19989;-69
2022/03/13 10:25:09;;;;;;;;;;;7.90;78.20;;;;;;5156401;27;20343;-71
2022/03/13 10:27:35;;;;;;;;;;;8.10;77.10;;;;;;5167289;27;19986;-70
2022/03/13 10:30:02;;;;;;;;;;;8.20;76.60;;;;;;5168054;27;19923;-69
2022/03/13 10:32:29;;;;;;;;;;;8.40;75.90;;;;;;5168020;27;19966;-71
2022/03/13 10:34:58;;;;;;;;;;;8.60;75.80;;;;;;5146712;27;20260;-71
2022/03/13 10:37:38;;;;;;;;;;;8.60;76.00;;;;;;5146346;27;20136;-68
2022/03/13 10:40:12;;;;;;;;;;;8.90;74.00;;;;;;5155391;27;19956;-70
2022/03/13 10:42:41;;;;;;;;;;;9.10;76.00;;;;;;5167727;27;19927;-69
2022/03/13 10:45:08;;;;;;;;;;;9.30;74.90;;;;;;5166113;27;19919;-71
2022/03/13 10:47:36;;;;;;;;;;;9.40;72.40;;;;;;5151409;27;19927;-69
2022/03/13 10:50:04;;;;;;;;;;;9.60;71.90;;;;;;5165497;27;19946;-70
2022/03/13 10:52:36;;;;;;;;;;;9.70;73.60;;;;;;5167449;27;20102;-70
2022/03/13 10:55:18;;;;;;;;;;;9.80;73.70;;;;;;5167052;27;19926;-71
2022/03/13 10:57:47;;;;;;;;;;;9.90;74.30;;;;;;5167783;27;19986;-71
2022/03/13 11:00:16;;;;;;;;;;;10.00;71.50;;;;;;5164149;27;19926;-69
2022/03/13 11:02:42;;;;;;;;;;;10.00;71.60;;;;;;5152453;27;20268;-70
2022/03/13 11:05:09;;;;;;;;;;;10.20;71.40;;;;;;5169357;27;19919;-69
2022/03/13 11:07:36;;;;;;;;;;;10.30;71.20;;;;;;5178469;27;20138;-69
2022/03/13 11:10:03;;;;;;;;;;;10.40;71.80;;;;;;5165590;27;19923;-71
2022/03/13 11:12:32;;;;;;;;;;;10.50;71.10;;;;;;5169142;27;19919;-70
2022/03/13 11:15:00;;;;;;;;;;;10.60;70.20;;;;;;5166737;27;19919;-75
2022/03/13 11:17:28;;;;;;;;;;;10.60;70.80;;;;;;5142040;27;20152;-69
2022/03/13 11:20:00;;;;;;;;;;;10.60;71.60;;;;;;5147473;27;19926;-70
2022/03/13 11:22:27;;;;;;;;;;;10.70;70.80;;;;;;5155048;27;19943;-67
2022/03/13 11:24:56;;;;;;;;;;;10.80;68.60;;;;;;5166387;27;20090;-68
2022/03/13 11:27:25;;;;;;;;;;;10.80;70.00;;;;;;5163175;27;20014;-69
2022/03/13 11:29:53;;;;;;;;;;;10.90;69.30;;;;;;5165768;27;19981;-69
2022/03/13 11:32:30;;;;;;;;;;;11.00;70.10;;;;;;5165147;27;19919;-68
2022/03/13 11:35:12;;;;;;;;;;;11.20;70.20;;;;;;5166295;27;19925;-68
2022/03/13 11:37:39;;;;;;;;;;;11.50;70.10;;;;;;5162659;27;19919;-68
2022/03/13 11:40:07;;;;;;;;;;;11.80;69.80;;;;;;5165811;27;19926;-69
2022/03/13 11:42:44;;;;;;;;;;;11.90;68.70;;;;;;5159266;27;20302;-69
2022/03/13 11:45:30;;;;;;;;;;;11.90;67.90;;;;;;5145334;27;20151;-68
2022/03/13 11:47:56;;;;;;;;;;;12.00;68.00;;;;;;5157204;27;19919;-69
2022/03/13 11:50:45;;;;;;;;;;;12.10;67.50;;;;;;5157364;27;19941;-68
2022/03/13 11:53:15;;;;;;;;;;;12.10;67.00;;;;;;5175045;27;20233;-68
2022/03/13 11:55:57;;;;;;;;;;;12.20;67.00;;;;;;5186364;27;19919;-68
2022/03/13 11:58:38;;;;;;;;;;;12.20;68.20;;;;;;5185537;27;20233;-68
2022/03/13 12:01:10;;;;;;;;;;;12.50;68.60;;;;;;5166166;27;19925;-69
2022/03/13 12:03:36;;;;;;;;;;;12.90;66.60;;;;;;5165714;27;19925;-69
2022/03/13 12:06:05;;;;;;;;;;;13.10;67.40;;;;;;5165132;27;19978;-69
2022/03/13 12:08:50;;;;;;;;;;;13.30;65.80;;;;;;5165525;27;20207;-69
2022/03/13 12:11:38;;;;;;;;;;;13.40;65.70;;;;;;5160881;27;19923;-72
2022/03/13 12:14:07;;;;;;;;;;;13.40;64.80;;;;;;5166443;27;19964;-72
2022/03/13 12:16:35;;;;;;;;;;;13.50;66.40;;;;;;5165606;27;19919;-72
2022/03/13 12:19:01;;;;;;;;;;;13.70;66.10;;;;;;5165784;27;19926;-72
2022/03/13 12:21:28;;;;;;;;;;;14.00;64.60;;;;;;5158477;27;19926;-73
2022/03/13 12:24:08;;;;;;;;;;;13.90;64.30;;;;;;5144925;27;19919;-72
2022/03/13 12:26:36;;;;;;;;;;;13.90;64.90;;;;;;5154783;27;19934;-69
2022/03/13 12:29:02;;;;;;;;;;;13.90;64.10;;;;;;5165046;27;19923;-69
2022/03/13 12:31:29;;;;;;;;;;;13.90;64.10;;;;;;5165145;27;19918;-71
2022/03/13 12:33:58;;;;;;;;;;;14.00;64.90;;;;;;5165504;27;19926;-70
2022/03/13 12:36:33;;;;;;;;;;;14.00;64.90;;;;;;5164927;27;19926;-70
2022/03/13 12:39:00;;;;;;;;;;;14.10;63.90;;;;;;5165802;27;20114;-70
2022/03/13 12:41:28;;;;;;;;;;;14.10;64.20;;;;;;5165846;27;19919;-69
2022/03/13 12:43:57;;;;;;;;;;;14.20;63.50;;;;;;5165689;27;19926;-74
2022/03/13 12:46:25;;;;;;;;;;;14.20;63.50;;;;;;5165006;27;19987;-69
2022/03/13 12:48:54;;;;;;;;;;;14.10;63.40;;;;;;5164077;27;20105;-70
2022/03/13 12:51:36;;;;;;;;;;;14.30;63.20;;;;;;5164947;27;19926;-69
2022/03/13 12:54:04;;;;;;;;;;;14.40;63.30;;;;;;5165218;27;19920;-69
2022/03/13 12:56:34;;;;;;;;;;;14.60;63.80;;;;;;5155021;27;19926;-70
2022/03/13 12:59:01;;;;;;;;;;;14.70;62.30;;;;;;5144738;28;19920;-70
2022/03/13 13:01:28;;;;;;;;;;;14.80;62.50;;;;;;5144816;28;19990;-70
2022/03/13 13:03:54;;;;;;;;;;;14.90;63.40;;;;;;5144404;28;19986;-74
2022/03/13 13:06:43;;;;;;;;;;;15.00;62.60;;;;;;5144243;28;20115;-70
2022/03/13 13:09:25;;;;;;;;;;;15.00;61.70;;;;;;5139385;27;19926;-70
2022/03/13 13:11:52;;;;;;;;;;;14.90;61.00;;;;;;5152572;22;19915;-70
2022/03/13 13:14:23;;;;;;;;;;;15.00;62.50;;;;;;5127492;28;19958;-71
2022/03/13 13:16:49;;;;;;;;;;;15.20;62.50;;;;;;5127130;28;19923;-69
2022/03/13 13:19:16;;;;;;;;;;;15.50;63.10;;;;;;5127914;28;20350;-68
2022/03/13 13:21:43;;;;;;;;;;;15.70;60.80;;;;;;5128061;28;19927;-69
2022/03/13 13:24:22;;;;;;;;;;;15.80;61.40;;;;;;5127736;28;19957;-67
2022/03/13 13:26:48;;;;;;;;;;;15.90;60.70;;;;;;5127180;28;19987;-68
2022/03/13 13:29:15;;;;;;;;;;;16.00;60.80;;;;;;5125448;28;20297;-68
2022/03/13 13:31:41;;;;;;;;;;;16.10;60.30;;;;;;5127530;28;19919;-68
2022/03/13 13:34:15;;;;;;;;;;;16.20;61.00;;;;;;5127301;28;20257;-67
2022/03/13 13:36:41;;;;;;;;;;;16.20;59.60;;;;;;5126491;28;19920;-67
2022/03/13 13:39:08;;;;;;;;;;;16.20;59.90;;;;;;5124050;28;19981;-67
2022/03/13 13:41:39;;;;;;;;;;;16.00;59.90;;;;;;5107034;28;19920;-69
2022/03/13 13:44:05;;;;;;;;;;;15.90;59.30;;;;;;5122420;28;19920;-69
2022/03/13 13:46:32;;;;;;;;;;;15.90;60.10;;;;;;5112941;28;19991;-68
2022/03/13 13:48:59;;;;;;;;;;;15.90;60.70;;;;;;5116969;28;19919;-68
2022/03/13 13:51:31;;;;;;;;;;;16.10;60.60;;;;;;5125289;28;19923;-69
2022/03/13 13:54:04;;;;;;;;;;;16.40;58.90;;;;;;5126704;28;20276;-66
2022/03/13 13:56:34;;;;;;;;;;;16.70;59.80;;;;;;5125944;28;19920;-68
2022/03/13 13:59:15;;;;;;;;;;;16.70;58.10;;;;;;5126909;28;20182;-66
2022/03/13 14:01:44;;;;;;;;;;;16.60;58.40;;;;;;5124387;28;19923;-67
2022/03/13 14:04:11;;;;;;;;;;;16.60;58.40;;;;;;5126115;28;19965;-67
2022/03/13 14:06:38;;;;;;;;;;;16.70;58.90;;;;;;5124196;28;19927;-67
2022/03/13 14:09:05;;;;;;;;;;;16.90;58.70;;;;;;5119145;28;19951;-67
2022/03/13 14:11:33;;;;;;;;;;;17.10;57.60;;;;;;5105503;28;19920;-67
2022/03/13 14:14:01;;;;;;;;;;;17.10;59.00;;;;;;5106093;28;20143;-69
2022/03/13 14:16:27;;;;;;;;;;;17.50;58.60;;;;;;5105280;28;19952;-67
2022/03/13 14:18:55;;;;;;;;;;;17.80;57.50;;;;;;5105757;28;19942;-69
2022/03/13 14:21:22;;;;;;;;;;;17.90;56.60;;;;;;5105335;28;20022;-69
2022/03/13 14:23:49;;;;;;;;;;;17.90;58.00;;;;;;5120220;28;20229;-67
2022/03/13 14:26:16;;;;;;;;;;;17.90;56.80;;;;;;5126100;28;19920;-67